Hatch, Utah
Current Conditions -  °F | °C
As of 12:53 PM on Friday 19 Dec 2014 (Local Time) from KBCE Reporting Station
Clear Clear  
Wind Chill: 25°   Ceiling: Unl
Heat Index: 32°   Visibility: 10mi
Dew Point: 19°   Wind: 8mph
Humidity: 59%   Direction: 140°SE
Pressure: 30.18"   Gusts: NA
Location:  37.65°N, 112.43°W
Report Text: KBCE 191953Z AUTO 14007KT 10SM CLR 00/M07 A3018 RMK AO2 SLP231 T00001072
Loading
Personal Weather Stations






























Interactive Weather Map New forecast layout! Learn more

10-Day Weather Forecast

Advertisements
Track Severe Weather on mobile